Time;durP1;ratioP1;P1;durP2;ratioP2;P2;SDS_P1;SDS_P2;PMS_P1;PMS_P2;Temp;Humidity;BMP_temperature;BMP_pressure;BME280_temperature;BME280_humidity;BME280_pressure;Samples;Min_cycle;Max_cycle;Signal;HPM_P1;HPM_P2
2022/05/29 01:48:44;;;;;;;2.17;1.90;;;;;;;;;;4915666;23;20293;-86
2022/05/29 01:51:14;;;;;;;1.92;1.75;;;;;;;;;;4986195;28;20231;-84
2022/05/29 01:53:44;;;;;;;1.90;1.80;;;;;;;;;;4988935;28;20278;-84
2022/05/29 01:56:17;;;;;;;2.00;1.90;;;;;;;;;;4991494;28;20211;-83
2022/05/29 01:58:46;;;;;;;2.00;1.80;;;;;;;;;;4984286;28;20231;-85
2022/05/29 02:01:14;;;;;;;2.00;1.80;;;;;;;;;;4965729;28;20212;-82
2022/05/29 02:03:44;;;;;;;2.20;1.83;;;;;;;;;;4968827;28;20197;-84
2022/05/29 02:06:13;;;;;;;1.90;1.73;;;;;;;;;;4973983;28;20209;-83
2022/05/29 02:08:46;;;;;;;2.58;1.80;;;;;;;;;;4977390;28;20239;-84
2022/05/29 02:11:15;;;;;;;2.38;1.88;;;;;;;;;;4962336;28;20207;-80
2022/05/29 02:13:47;;;;;;;2.00;1.80;;;;;;;;;;4970109;28;20228;-84
2022/05/29 02:16:16;;;;;;;1.83;1.70;;;;;;;;;;4976959;28;20212;-84
2022/05/29 02:18:48;;;;;;;2.08;1.75;;;;;;;;;;4969019;28;20231;-83
2022/05/29 02:21:19;;;;;;;1.90;1.80;;;;;;;;;;4960239;28;20703;-82
2022/05/29 02:23:47;;;;;;;2.72;1.90;;;;;;;;;;4958135;28;20200;-84
2022/05/29 02:26:19;;;;;;;1.60;1.50;;;;;;;;;;4958212;28;20296;-84
2022/05/29 02:28:49;;;;;;;2.50;1.60;;;;;;;;;;4962965;28;20232;-84
2022/05/29 02:31:19;;;;;;;1.73;1.63;;;;;;;;;;4970370;28;20208;-84
2022/05/29 02:33:55;;;;;;;2.38;1.83;;;;;;;;;;4974859;28;20227;-84
2022/05/29 02:36:29;;;;;;;2.47;1.92;;;;;;;;;;4970722;28;20295;-84
2022/05/29 02:39:04;;;;;;;2.00;1.85;;;;;;;;;;4962992;28;20280;-83
2022/05/29 02:41:34;;;;;;;2.05;1.80;;;;;;;;;;4969897;28;20188;-86
2022/05/29 02:44:06;;;;;;;1.75;1.60;;;;;;;;;;4985878;28;20203;-85
2022/05/29 02:46:36;;;;;;;2.38;1.85;;;;;;;;;;4984835;28;20223;-85
2022/05/29 02:49:06;;;;;;;2.17;1.75;;;;;;;;;;4984078;28;20242;-86
2022/05/29 02:51:36;;;;;;;2.28;1.77;;;;;;;;;;4992721;28;20206;-85
2022/05/29 02:54:03;;;;;;;2.38;1.50;;;;;;;;;;4999141;28;20291;-85
2022/05/29 02:56:30;;;;;;;1.73;1.50;;;;;;;;;;4993896;28;20210;-85
2022/05/29 02:58:59;;;;;;;1.98;1.77;;;;;;;;;;4993532;28;20634;-85
2022/05/29 03:01:31;;;;;;;1.80;1.70;;;;;;;;;;5000702;28;20226;-85
2022/05/29 03:04:05;;;;;;;1.95;1.60;;;;;;;;;;4992937;28;20218;-85
2022/05/29 03:06:41;;;;;;;2.05;1.80;;;;;;;;;;4987527;28;20200;-85
2022/05/29 03:09:15;;;;;;;1.70;1.60;;;;;;;;;;4996334;28;20777;-84
2022/05/29 03:11:43;;;;;;;2.03;1.58;;;;;;;;;;4993466;28;20211;-85
2022/05/29 03:14:19;;;;;;;2.03;1.67;;;;;;;;;;4987044;28;20232;-85
2022/05/29 03:16:53;;;;;;;1.85;1.60;;;;;;;;;;4981457;28;20203;-84
2022/05/29 03:19:26;;;;;;;2.03;1.50;;;;;;;;;;4982869;28;20225;-85
2022/05/29 03:22:01;;;;;;;1.70;1.60;;;;;;;;;;4979002;28;20208;-85
2022/05/29 03:24:31;;;;;;;1.80;1.60;;;;;;;;;;4993002;28;20199;-85
2022/05/29 03:27:02;;;;;;;2.65;1.77;;;;;;;;;;4992483;28;20294;-85
2022/05/29 03:29:34;;;;;;;1.80;1.70;;;;;;;;;;5000535;28;20280;-85
2022/05/29 03:32:01;;;;;;;2.05;1.85;;;;;;;;;;4984302;28;20212;-84
2022/05/29 03:34:28;;;;;;;1.92;1.70;;;;;;;;;;4983887;28;20240;-85
2022/05/29 03:36:57;;;;;;;2.03;1.58;;;;;;;;;;4987053;28;20211;-85
2022/05/29 03:39:24;;;;;;;1.90;1.70;;;;;;;;;;4988978;28;20231;-84
2022/05/29 03:41:53;;;;;;;2.25;1.50;;;;;;;;;;4988508;28;20207;-85
2022/05/29 03:44:21;;;;;;;2.13;1.40;;;;;;;;;;4993697;28;20203;-85
2022/05/29 03:46:48;;;;;;;2.15;1.75;;;;;;;;;;5008626;28;20208;-85
2022/05/29 03:49:17;;;;;;;2.03;1.73;;;;;;;;;;5000419;28;20236;-85
2022/05/29 03:51:44;;;;;;;1.85;1.73;;;;;;;;;;5001308;28;20204;-85
2022/05/29 03:54:15;;;;;;;1.55;1.45;;;;;;;;;;4995717;28;20211;-85
2022/05/29 03:56:43;;;;;;;2.30;1.80;;;;;;;;;;4988424;28;20239;-85
2022/05/29 03:59:10;;;;;;;1.70;1.60;;;;;;;;;;5001366;28;20219;-85
2022/05/29 04:01:39;;;;;;;1.50;1.30;;;;;;;;;;5004458;28;20211;-82
2022/05/29 04:04:06;;;;;;;2.25;1.58;;;;;;;;;;4998688;28;20223;-85
2022/05/29 04:06:36;;;;;;;1.60;1.50;;;;;;;;;;4998039;28;20227;-85
2022/05/29 04:12:07;;;;;;;1.60;1.50;;;;;;;;;;4998188;28;20214;-83
2022/05/29 04:14:36;;;;;;;1.95;1.58;;;;;;;;;;4985676;28;20228;-85
2022/05/29 04:17:03;;;;;;;1.67;1.48;;;;;;;;;;4985495;28;20223;-86
2022/05/29 04:19:30;;;;;;;1.65;1.55;;;;;;;;;;4986473;28;20223;-85
2022/05/29 04:21:58;;;;;;;1.70;1.50;;;;;;;;;;4991447;28;20200;-85
2022/05/29 04:24:25;;;;;;;1.65;1.50;;;;;;;;;;4983412;28;20263;-83
2022/05/29 04:26:54;;;;;;;1.50;1.40;;;;;;;;;;4991752;28;20204;-85
2022/05/29 04:29:22;;;;;;;1.77;1.60;;;;;;;;;;4995467;28;20275;-86
2022/05/29 04:34:34;;;;;;;1.60;1.50;;;;;;;;;;4995161;28;20246;-85
2022/05/29 04:37:01;;;;;;;1.63;1.52;;;;;;;;;;4990061;28;20216;-85
2022/05/29 04:39:30;;;;;;;2.22;1.60;;;;;;;;;;4982546;28;20318;-86
2022/05/29 04:42:00;;;;;;;1.85;1.50;;;;;;;;;;4992880;28;20215;-85
2022/05/29 04:44:28;;;;;;;2.33;1.90;;;;;;;;;;4990530;28;20196;-84
2022/05/29 04:46:57;;;;;;;1.83;1.73;;;;;;;;;;4993952;28;20195;-84
2022/05/29 04:49:24;;;;;;;1.60;1.50;;;;;;;;;;4995763;28;20246;-86
2022/05/29 04:51:51;;;;;;;1.67;1.58;;;;;;;;;;5001489;28;20235;-84
2022/05/29 04:54:18;;;;;;;1.65;1.52;;;;;;;;;;4998767;28;20224;-86
2022/05/29 04:56:47;;;;;;;1.75;1.50;;;;;;;;;;4987044;28;20210;-84
2022/05/29 04:59:16;;;;;;;1.65;1.40;;;;;;;;;;4991836;28;20318;-85
2022/05/29 05:01:43;;;;;;;1.92;1.50;;;;;;;;;;5002645;28;20199;-85
2022/05/29 05:04:10;;;;;;;1.70;1.45;;;;;;;;;;4993716;28;20226;-85
2022/05/29 05:06:38;;;;;;;1.67;1.55;;;;;;;;;;4998584;28;20207;-85
2022/05/29 05:09:05;;;;;;;1.60;1.50;;;;;;;;;;4994294;28;20617;-85
2022/05/29 05:11:33;;;;;;;1.90;1.70;;;;;;;;;;4999617;28;20213;-86
2022/05/29 05:14:00;;;;;;;1.50;1.40;;;;;;;;;;4987341;28;20220;-86
2022/05/29 05:16:29;;;;;;;1.70;1.60;;;;;;;;;;4985577;28;20203;-86
2022/05/29 05:18:56;;;;;;;1.63;1.48;;;;;;;;;;4978176;28;20223;-86
2022/05/29 05:21:24;;;;;;;1.85;1.63;;;;;;;;;;4992004;28;20207;-86
2022/05/29 05:23:51;;;;;;;1.80;1.58;;;;;;;;;;4999368;28;20191;-83
2022/05/29 05:26:19;;;;;;;1.85;1.45;;;;;;;;;;4994091;28;20218;-85
2022/05/29 05:28:46;;;;;;;2.42;1.75;;;;;;;;;;4998766;28;20266;-84
2022/05/29 05:31:16;;;;;;;2.05;1.70;;;;;;;;;;4999466;28;20203;-82
2022/05/29 05:33:45;;;;;;;1.30;1.17;;;;;;;;;;4993675;28;20249;-84
2022/05/29 05:36:14;;;;;;;1.45;1.33;;;;;;;;;;4998140;28;20213;-84
2022/05/29 05:38:41;;;;;;;1.55;1.45;;;;;;;;;;4989470;28;20227;-84
2022/05/29 05:41:10;;;;;;;2.13;1.40;;;;;;;;;;4996956;28;20211;-82
2022/05/29 05:43:39;;;;;;;2.13;1.70;;;;;;;;;;4986840;28;20211;-84
2022/05/29 05:46:07;;;;;;;1.60;1.50;;;;;;;;;;4979358;28;20682;-84
2022/05/29 05:48:34;;;;;;;2.83;1.77;;;;;;;;;;4979294;28;20240;-83
2022/05/29 05:51:03;;;;;;;1.80;1.70;;;;;;;;;;4990710;28;20208;-84
2022/05/29 05:53:31;;;;;;;1.67;1.50;;;;;;;;;;4997487;28;20219;-82
2022/05/29 05:55:58;;;;;;;2.40;1.45;;;;;;;;;;4987009;28;20208;-84
2022/05/29 05:58:25;;;;;;;1.52;1.42;;;;;;;;;;4979147;28;20219;-82
2022/05/29 06:00:53;;;;;;;1.52;1.42;;;;;;;;;;4995891;28;20636;-83
2022/05/29 06:03:20;;;;;;;1.33;1.27;;;;;;;;;;4997049;28;20249;-84
2022/05/29 06:05:48;;;;;;;1.70;1.60;;;;;;;;;;4986513;28;20270;-85
2022/05/29 06:08:17;;;;;;;1.50;1.40;;;;;;;;;;4983834;28;20234;-84
2022/05/29 06:10:44;;;;;;;1.45;1.35;;;;;;;;;;4981188;28;20207;-84
2022/05/29 06:13:11;;;;;;;2.00;1.38;;;;;;;;;;4995823;28;20226;-84
2022/05/29 06:15:41;;;;;;;1.70;1.60;;;;;;;;;;4997694;28;20266;-83
2022/05/29 06:18:09;;;;;;;1.90;1.60;;;;;;;;;;4993501;28;20203;-84
2022/05/29 06:20:36;;;;;;;2.42;1.70;;;;;;;;;;4990493;28;20231;-84
2022/05/29 06:23:03;;;;;;;1.50;1.40;;;;;;;;;;4987397;28;20196;-83
2022/05/29 06:25:32;;;;;;;1.67;1.50;;;;;;;;;;4988356;28;20231;-84
2022/05/29 06:28:01;;;;;;;1.52;1.42;;;;;;;;;;4989636;28;20204;-83
2022/05/29 06:30:28;;;;;;;1.70;1.50;;;;;;;;;;4988781;28;20213;-84
2022/05/29 06:32:55;;;;;;;2.53;1.60;;;;;;;;;;4988330;28;20204;-82
2022/05/29 06:35:23;;;;;;;1.70;1.42;;;;;;;;;;4981191;28;20220;-83
2022/05/29 06:37:50;;;;;;;1.63;1.50;;;;;;;;;;4988322;28;20212;-86
2022/05/29 06:40:23;;;;;;;1.50;1.40;;;;;;;;;;4989827;28;20277;-83
2022/05/29 06:42:54;;;;;;;1.58;1.48;;;;;;;;;;4995684;28;20199;-87
2022/05/29 06:45:21;;;;;;;1.58;1.45;;;;;;;;;;4989988;28;20204;-85
2022/05/29 06:47:49;;;;;;;2.10;1.25;;;;;;;;;;4987811;28;20203;-86
2022/05/29 06:50:16;;;;;;;2.65;1.35;;;;;;;;;;4991832;28;20339;-85
2022/05/29 06:52:44;;;;;;;1.40;1.23;;;;;;;;;;4992035;28;20235;-86
2022/05/29 06:55:11;;;;;;;1.77;1.48;;;;;;;;;;4991175;28;20223;-85
2022/05/29 06:57:41;;;;;;;1.75;1.55;;;;;;;;;;4991294;28;20210;-86
2022/05/29 07:08:27;;;;;;;1.60;1.40;;;;;;;;;;4993976;28;20234;-86
2022/05/29 07:10:55;;;;;;;1.88;1.35;;;;;;;;;;4994432;28;20210;-84
2022/05/29 07:13:23;;;;;;;1.48;1.38;;;;;;;;;;4994351;28;20261;-85
2022/05/29 07:15:52;;;;;;;2.05;1.50;;;;;;;;;;4993778;28;20203;-85
2022/05/29 07:18:19;;;;;;;1.35;1.25;;;;;;;;;;4994313;28;20305;-86
2022/05/29 07:20:51;;;;;;;1.60;1.50;;;;;;;;;;4993679;28;20215;-86
2022/05/29 07:23:19;;;;;;;2.45;1.60;;;;;;;;;;4993403;28;20213;-86
2022/05/29 07:25:47;;;;;;;1.60;1.50;;;;;;;;;;4991590;28;20214;-86
2022/05/29 07:28:14;;;;;;;1.52;1.42;;;;;;;;;;4993338;28;20227;-84
2022/05/29 07:30:42;;;;;;;1.45;1.35;;;;;;;;;;4985896;28;20210;-87
2022/05/29 07:33:11;;;;;;;1.92;1.50;;;;;;;;;;4986857;28;20199;-87
2022/05/29 07:35:38;;;;;;;1.80;1.48;;;;;;;;;;4990151;28;20242;-87
2022/05/29 07:38:06;;;;;;;1.45;1.35;;;;;;;;;;4989494;28;20207;-87
2022/05/29 07:40:33;;;;;;;1.40;1.30;;;;;;;;;;4990789;28;20215;-87
2022/05/29 07:45:56;;;;;;;1.40;1.30;;;;;;;;;;4949928;28;20204;-86
2022/05/29 07:48:27;;;;;;;2.60;1.90;;;;;;;;;;4982144;28;20244;-86
2022/05/29 07:50:54;;;;;;;1.85;1.67;;;;;;;;;;4988369;28;20210;-86
2022/05/29 07:53:30;;;;;;;1.65;1.48;;;;;;;;;;4988376;28;20227;-85
2022/05/29 07:56:03;;;;;;;2.72;1.70;;;;;;;;;;4973038;28;20313;-87
2022/05/29 07:58:30;;;;;;;2.25;1.40;;;;;;;;;;4973272;28;20228;-86
2022/05/29 08:00:58;;;;;;;2.05;1.42;;;;;;;;;;4986561;28;20227;-85
2022/05/29 08:03:27;;;;;;;1.70;1.40;;;;;;;;;;4990490;28;20199;-85
2022/05/29 08:05:54;;;;;;;2.15;1.40;;;;;;;;;;4990000;28;20219;-87
2022/05/29 08:08:22;;;;;;;1.58;1.45;;;;;;;;;;4991065;28;20778;-86
2022/05/29 08:10:49;;;;;;;1.45;1.33;;;;;;;;;;4993348;28;20238;-85
2022/05/29 08:13:17;;;;;;;2.10;1.50;;;;;;;;;;4991955;28;20207;-86
2022/05/29 08:15:44;;;;;;;1.83;1.33;;;;;;;;;;4994542;28;20223;-86
2022/05/29 08:18:11;;;;;;;2.53;1.30;;;;;;;;;;4994907;28;20270;-86
2022/05/29 08:20:40;;;;;;;3.38;1.67;;;;;;;;;;4989666;28;20215;-85
2022/05/29 08:23:08;;;;;;;2.15;1.40;;;;;;;;;;4992494;28;20213;-85
2022/05/29 08:31:06;;;;;;;1.92;1.63;;;;;;;;;;4993948;28;20269;-87
2022/05/29 08:33:34;;;;;;;2.35;1.40;;;;;;;;;;4993209;28;20207;-88
2022/05/29 08:36:06;;;;;;;3.13;1.75;;;;;;;;;;4992670;28;20246;-87
2022/05/29 08:38:34;;;;;;;2.17;1.40;;;;;;;;;;4986001;28;20222;-89
2022/05/29 08:41:02;;;;;;;1.92;1.35;;;;;;;;;;4981102;28;20203;-89
2022/05/29 08:43:33;;;;;;;1.85;1.30;;;;;;;;;;4986655;28;20210;-86
2022/05/29 08:46:00;;;;;;;2.67;1.60;;;;;;;;;;4998425;28;20202;-85
2022/05/29 08:48:28;;;;;;;2.28;1.65;;;;;;;;;;4996147;28;20266;-85
2022/05/29 08:50:58;;;;;;;1.63;1.40;;;;;;;;;;4995044;28;20261;-86
2022/05/29 08:53:33;;;;;;;2.83;1.75;;;;;;;;;;4991909;28;20199;-85
2022/05/29 08:56:04;;;;;;;1.70;1.40;;;;;;;;;;4989571;28;20269;-85
2022/05/29 08:58:36;;;;;;;2.85;1.58;;;;;;;;;;4994582;28;20222;-85
2022/05/29 09:01:09;;;;;;;1.70;1.60;;;;;;;;;;4993265;28;20211;-86
2022/05/29 09:03:43;;;;;;;2.58;1.45;;;;;;;;;;4975624;28;20218;-86
2022/05/29 09:06:12;;;;;;;1.92;1.60;;;;;;;;;;4975727;28;20255;-86
2022/05/29 09:08:43;;;;;;;2.45;1.50;;;;;;;;;;4981563;28;20232;-85
2022/05/29 09:11:17;;;;;;;1.88;1.67;;;;;;;;;;4987934;28;20242;-86
2022/05/29 09:13:47;;;;;;;1.80;1.45;;;;;;;;;;4993607;28;20206;-88
2022/05/29 09:16:16;;;;;;;2.88;1.50;;;;;;;;;;4991706;28;20282;-87
2022/05/29 09:18:49;;;;;;;2.55;1.70;;;;;;;;;;4993588;28;20695;-87
2022/05/29 09:21:21;;;;;;;2.65;1.45;;;;;;;;;;4987991;28;20208;-88
2022/05/29 09:31:42;;;;;;;1.90;1.55;;;;;;;;;;5087635;23;20235;-84
2022/05/29 09:34:14;;;;;;;1.60;1.50;;;;;;;;;;5002778;28;20282;-85
2022/05/29 09:36:54;;;;;;;2.40;1.58;;;;;;;;;;4994325;28;20222;-87
2022/05/29 09:39:26;;;;;;;1.75;1.45;;;;;;;;;;4993245;28;20275;-87
2022/05/29 09:42:00;;;;;;;1.83;1.50;;;;;;;;;;4993357;28;20214;-87
2022/05/29 09:44:28;;;;;;;3.83;1.75;;;;;;;;;;4989667;28;20243;-87
2022/05/29 09:49:45;;;;;;;3.45;1.80;;;;;;;;;;4987161;28;20703;-87
2022/05/29 09:52:14;;;;;;;2.13;1.58;;;;;;;;;;4989866;28;20702;-87
2022/05/29 09:54:45;;;;;;;1.80;1.40;;;;;;;;;;4993114;28;20251;-87
2022/05/29 09:57:14;;;;;;;2.33;1.55;;;;;;;;;;4988886;28;20211;-87
2022/05/29 09:59:46;;;;;;;1.90;1.67;;;;;;;;;;4995892;28;20270;-87
2022/05/29 10:05:05;;;;;;;2.58;1.70;;;;;;;;;;4991324;28;20240;-88
2022/05/29 10:07:35;;;;;;;2.10;1.88;;;;;;;;;;4992953;28;20206;-87
2022/05/29 10:10:07;;;;;;;3.25;1.80;;;;;;;;;;4994001;28;20269;-87
2022/05/29 10:12:38;;;;;;;2.08;1.70;;;;;;;;;;4987329;28;20227;-87
2022/05/29 10:15:06;;;;;;;2.30;1.60;;;;;;;;;;4992598;28;20249;-87
2022/05/29 10:17:38;;;;;;;2.95;1.80;;;;;;;;;;4992345;28;20261;-88
2022/05/29 10:20:25;;;;;;;2.75;1.90;;;;;;;;;;4993130;28;20234;-88
2022/05/29 10:22:54;;;;;;;1.95;1.58;;;;;;;;;;4992570;28;20207;-88
2022/05/29 10:25:25;;;;;;;1.92;1.70;;;;;;;;;;4992999;28;20223;-88
2022/05/29 10:27:56;;;;;;;3.00;1.60;;;;;;;;;;4993617;28;20222;-87
2022/05/29 10:30:32;;;;;;;2.53;1.63;;;;;;;;;;4993193;28;20226;-87
2022/05/29 10:44:40;;;;;;;5.03;4.22;;;;;;;;;;4902523;29;20351;-85
2022/05/29 10:47:11;;;;;;;5.35;4.20;;;;;;;;;;4965965;28;20210;-85
2022/05/29 10:49:43;;;;;;;6.05;3.80;;;;;;;;;;4961073;28;20276;-85
2022/05/29 10:52:30;;;;;;;8.30;3.92;;;;;;;;;;4954200;28;20247;-85
2022/05/29 10:55:18;;;;;;;6.45;3.70;;;;;;;;;;4968787;28;20231;-85
2022/05/29 11:00:55;;;;;;;7.30;3.42;;;;;;;;;;4966544;28;20223;-90
2022/05/29 11:03:56;;;;;;;7.60;3.70;;;;;;;;;;4966306;28;20215;-85
2022/05/29 11:09:39;;;;;;;6.15;3.63;;;;;;;;;;4955192;28;20204;-85
2022/05/29 11:12:15;;;;;;;4.47;3.80;;;;;;;;;;4959853;28;20211;-85
2022/05/29 11:14:53;;;;;;;5.43;3.72;;;;;;;;;;4957242;28;20216;-84
2022/05/29 11:17:25;;;;;;;4.90;3.65;;;;;;;;;;4958730;28;20215;-85
2022/05/29 11:20:12;;;;;;;4.18;3.50;;;;;;;;;;4957979;28;20271;-86
2022/05/29 11:22:41;;;;;;;5.43;3.90;;;;;;;;;;4960336;28;20208;-85
2022/05/29 11:25:40;;;;;;;6.28;4.00;;;;;;;;;;4959398;28;20221;-85
2022/05/29 11:28:14;;;;;;;4.25;3.60;;;;;;;;;;4955787;28;20235;-85
2022/05/29 11:30:52;;;;;;;4.50;3.30;;;;;;;;;;4953640;28;20197;-85
2022/05/29 11:33:32;;;;;;;6.10;3.75;;;;;;;;;;4954062;28;20212;-84
2022/05/29 11:36:06;;;;;;;4.32;3.40;;;;;;;;;;4954531;28;20228;-85
2022/05/29 11:38:44;;;;;;;4.78;3.40;;;;;;;;;;4954692;28;20208;-85
2022/05/29 11:41:14;;;;;;;4.13;3.20;;;;;;;;;;4959079;28;20247;-86
2022/05/29 11:43:49;;;;;;;3.63;3.33;;;;;;;;;;4957424;28;20220;-85
2022/05/29 11:52:03;;;;;;;3.83;3.47;;;;;;;;;;4968624;28;20199;-85
2022/05/29 11:54:37;;;;;;;5.32;3.30;;;;;;;;;;4959797;28;20257;-84
2022/05/29 11:57:07;;;;;;;4.82;3.17;;;;;;;;;;4961733;28;20204;-85
2022/05/29 11:59:47;;;;;;;3.30;3.00;;;;;;;;;;4960029;28;20607;-84
2022/05/29 12:02:22;;;;;;;3.10;2.80;;;;;;;;;;4959797;28;20212;-84
2022/05/29 12:04:52;;;;;;;3.20;2.90;;;;;;;;;;4960129;28;20224;-85
2022/05/29 12:07:21;;;;;;;4.45;3.15;;;;;;;;;;4957832;28;20208;-84
2022/05/29 12:09:54;;;;;;;3.10;2.70;;;;;;;;;;4964202;28;20224;-84
2022/05/29 12:12:32;;;;;;;3.47;2.72;;;;;;;;;;4961451;28;20255;-84
2022/05/29 12:15:04;;;;;;;2.83;2.60;;;;;;;;;;4961892;28;20230;-85
2022/05/29 12:17:36;;;;;;;3.08;2.60;;;;;;;;;;4963549;28;20196;-84
2022/05/29 12:20:05;;;;;;;2.78;2.58;;;;;;;;;;4963309;28;20213;-84
2022/05/29 12:22:39;;;;;;;4.63;3.15;;;;;;;;;;4961573;28;20233;-85
2022/05/29 12:25:15;;;;;;;2.95;2.65;;;;;;;;;;4960620;28;20220;-85
2022/05/29 12:27:42;;;;;;;2.90;2.60;;;;;;;;;;4976824;28;20227;-86
2022/05/29 12:30:13;;;;;;;2.78;2.55;;;;;;;;;;4980336;28;20204;-85
2022/05/29 12:32:42;;;;;;;2.90;2.60;;;;;;;;;;4980831;28;20188;-85
2022/05/29 12:35:11;;;;;;;2.70;2.50;;;;;;;;;;4976442;28;20232;-86
2022/05/29 12:37:49;;;;;;;8.60;8.00;;;;;;;;;;4979282;28;20211;-84
2022/05/29 12:43:42;;;;;;;10.80;10.00;;;;;;;;;;4966617;28;20216;-83
2022/05/29 12:46:23;;;;;;;15.95;11.07;;;;;;;;;;4969015;28;20570;-87
2022/05/29 12:52:02;;;;;;;46.03;19.10;;;;;;;;;;4957438;28;20215;-83
2022/05/29 12:54:48;;;;;;;125.88;37.42;;;;;;;;;;4964499;28;20225;-83
2022/05/29 12:57:32;;;;;;;177.60;48.33;;;;;;;;;;4961319;28;20228;-83
2022/05/29 13:00:25;;;;;;;175.35;48.38;;;;;;;;;;4964270;28;20207;-83
2022/05/29 13:03:20;;;;;;;139.43;44.75;;;;;;;;;;4971588;28;20200;-83
2022/05/29 13:06:06;;;;;;;150.95;45.83;;;;;;;;;;4963717;28;20236;-83
2022/05/29 13:08:42;;;;;;;142.38;43.17;;;;;;;;;;4958936;28;20222;-83
2022/05/29 13:11:10;;;;;;;119.93;41.00;;;;;;;;;;4963466;28;20200;-82
2022/05/29 13:13:39;;;;;;;117.68;38.65;;;;;;;;;;4963085;28;20228;-83
2022/05/29 13:16:22;;;;;;;105.82;37.58;;;;;;;;;;4959379;28;20220;-82
2022/05/29 13:21:54;;;;;;;110.70;37.00;;;;;;;;;;4964090;28;20209;-83
2022/05/29 13:24:25;;;;;;;90.10;34.55;;;;;;;;;;4962396;28;20292;-84
2022/05/29 13:27:11;;;;;;;92.68;34.97;;;;;;;;;;4963941;28;20200;-84
2022/05/29 13:29:46;;;;;;;93.95;33.50;;;;;;;;;;4963843;28;20212;-84
2022/05/29 13:32:23;;;;;;;87.63;34.83;;;;;;;;;;4974489;28;20236;-83
2022/05/29 13:35:19;;;;;;;117.18;37.78;;;;;;;;;;4979980;28;20215;-86
2022/05/29 13:37:56;;;;;;;116.85;37.67;;;;;;;;;;4902533;29;20215;-85
2022/05/29 15:58:42;;;;;;;8.93;1.80;;;;;;;;;;4988204;28;20208;-86
2022/05/29 16:57:38;;;;;;;57.28;31.88;;;;;;;;;;4911252;29;20308;-86
2022/05/29 17:03:22;;;;;;;50.47;26.65;;;;;;;;;;4766541;30;20214;-86
2022/05/29 17:06:05;;;;;;;;;;;;;;;;;;;;;
2022/05/29 17:11:47;;;;;;;48.30;22.20;;;;;;;;;;4767737;30;20316;-87
2022/05/29 17:14:19;;;;;;;38.83;20.25;;;;;;;;;;4769926;30;20669;-87
2022/05/29 17:16:48;;;;;;;40.55;18.92;;;;;;;;;;4767753;30;20772;-87
2022/05/29 17:19:18;;;;;;;34.72;17.80;;;;;;;;;;4768285;30;20219;-87
2022/05/29 17:21:54;;;;;;;34.35;18.20;;;;;;;;;;4766868;30;20222;-88
2022/05/29 17:24:28;;;;;;;34.47;16.90;;;;;;;;;;4767244;30;20241;-88
2022/05/29 17:27:15;;;;;;;32.90;16.25;;;;;;;;;;4770824;30;20215;-87
2022/05/29 17:32:56;;;;;;;27.40;13.88;;;;;;;;;;4730776;30;20212;-88
2022/05/29 17:35:31;;;;;;;30.02;13.23;;;;;;;;;;4785361;29;20227;-87
2022/05/29 17:38:19;;;;;;;25.75;12.35;;;;;;;;;;4823070;29;20227;-89
2022/05/29 17:40:48;;;;;;;24.20;12.48;;;;;;;;;;4971421;28;20211;-89
2022/05/29 17:43:16;;;;;;;26.10;11.63;;;;;;;;;;4991396;28;20203;-89
2022/05/29 17:45:51;;;;;;;22.75;11.32;;;;;;;;;;4993751;28;20208;-89
2022/05/29 17:48:35;;;;;;;22.88;10.50;;;;;;;;;;4987813;28;20207;-89
2022/05/29 17:51:11;;;;;;;19.38;10.77;;;;;;;;;;4988164;28;20242;-88
2022/05/29 17:53:54;;;;;;;18.45;9.70;;;;;;;;;;4990277;28;20254;-88
2022/05/29 17:56:24;;;;;;;19.00;9.40;;;;;;;;;;4992645;28;20231;-88
2022/05/29 17:58:57;;;;;;;20.60;10.65;;;;;;;;;;4993001;28;20203;-88
2022/05/29 18:01:29;;;;;;;18.40;9.55;;;;;;;;;;4992883;28;20247;-88
2022/05/29 18:03:56;;;;;;;18.50;9.40;;;;;;;;;;4989560;28;20317;-88
2022/05/29 18:06:27;;;;;;;15.63;8.40;;;;;;;;;;4993497;28;20219;-88
2022/05/29 18:08:54;;;;;;;15.93;8.40;;;;;;;;;;4986143;28;20199;-88
2022/05/29 18:11:36;;;;;;;16.83;9.18;;;;;;;;;;4982262;28;20204;-88
2022/05/29 18:14:06;;;;;;;15.85;8.45;;;;;;;;;;4986244;28;20262;-88
2022/05/29 18:16:37;;;;;;;15.40;8.10;;;;;;;;;;4992249;28;20219;-88
2022/05/29 18:19:05;;;;;;;14.43;7.25;;;;;;;;;;4987999;28;20207;-88
2022/05/29 18:21:34;;;;;;;14.68;7.85;;;;;;;;;;4989903;28;20216;-88
2022/05/29 18:24:01;;;;;;;13.82;7.30;;;;;;;;;;4984756;28;20223;-89
2022/05/29 18:26:32;;;;;;;15.55;7.72;;;;;;;;;;4991219;28;20257;-88
2022/05/29 18:29:00;;;;;;;14.02;7.15;;;;;;;;;;4989215;28;20203;-89
2022/05/29 18:31:32;;;;;;;13.93;7.18;;;;;;;;;;4984430;28;20234;-88
2022/05/29 18:34:05;;;;;;;14.38;7.18;;;;;;;;;;4988047;28;20250;-87
2022/05/29 18:36:34;;;;;;;11.15;6.35;;;;;;;;;;4991582;28;20302;-88
2022/05/29 18:39:08;;;;;;;10.23;6.25;;;;;;;;;;4992527;28;20207;-88
2022/05/29 18:41:44;;;;;;;12.50;6.47;;;;;;;;;;4990218;28;20215;-88
2022/05/29 18:44:13;;;;;;;11.77;6.47;;;;;;;;;;4998946;28;20222;-88
2022/05/29 18:49:36;;;;;;;11.43;5.72;;;;;;;;;;4991532;28;20295;-88
2022/05/29 18:52:16;;;;;;;10.23;5.50;;;;;;;;;;4994848;28;20200;-88
2022/05/29 18:54:47;;;;;;;10.95;5.85;;;;;;;;;;4996168;28;20699;-88
2022/05/29 18:57:20;;;;;;;8.50;5.25;;;;;;;;;;4992284;28;20308;-88
2022/05/29 19:00:02;;;;;;;9.55;5.30;;;;;;;;;;4987671;28;20263;-87
2022/05/29 19:02:35;;;;;;;9.02;5.38;;;;;;;;;;4988478;28;20258;-87
2022/05/29 19:05:13;;;;;;;9.07;5.65;;;;;;;;;;4991891;28;20227;-87
2022/05/29 19:07:45;;;;;;;11.57;5.70;;;;;;;;;;4988035;28;20294;-87
2022/05/29 19:10:22;;;;;;;9.95;5.25;;;;;;;;;;4991992;28;20378;-88
2022/05/29 19:12:50;;;;;;;8.40;4.72;;;;;;;;;;4991548;28;20218;-88
2022/05/29 19:15:32;;;;;;;9.55;4.90;;;;;;;;;;4990001;28;20261;-87
2022/05/29 19:18:15;;;;;;;8.05;4.97;;;;;;;;;;4990826;28;20231;-92
2022/05/29 22:06:19;;;;;;;2.28;2.08;;;;;;;;;;5001498;23;20277;-82
2022/05/29 22:08:50;;;;;;;3.00;2.08;;;;;;;;;;4993715;28;20203;-82
2022/05/29 22:11:17;;;;;;;3.33;2.25;;;;;;;;;;4992441;28;20227;-81
2022/05/29 22:13:46;;;;;;;4.50;1.67;;;;;;;;;;4993587;28;20226;-82
2022/05/29 22:16:17;;;;;;;2.20;2.00;;;;;;;;;;4994418;28;20306;-82
2022/05/29 22:18:47;;;;;;;2.00;1.85;;;;;;;;;;4993882;28;20219;-82
2022/05/29 22:21:17;;;;;;;2.33;2.13;;;;;;;;;;4993551;28;20301;-81
2022/05/29 22:23:48;;;;;;;3.97;1.90;;;;;;;;;;4992336;28;20291;-82
2022/05/29 22:26:18;;;;;;;1.85;1.75;;;;;;;;;;4975674;28;20248;-82
2022/05/29 22:28:45;;;;;;;3.58;1.90;;;;;;;;;;4975255;28;20200;-82
2022/05/29 22:31:27;;;;;;;2.78;1.95;;;;;;;;;;4975287;28;20220;-81
2022/05/29 22:33:55;;;;;;;2.72;2.08;;;;;;;;;;4970329;28;20264;-83
2022/05/29 22:36:27;;;;;;;2.83;2.03;;;;;;;;;;4979217;28;20227;-82
2022/05/29 22:38:56;;;;;;;2.88;1.95;;;;;;;;;;4988852;28;20278;-82
2022/05/29 22:41:24;;;;;;;2.00;1.80;;;;;;;;;;4974878;28;20207;-82
2022/05/29 22:43:54;;;;;;;2.67;1.90;;;;;;;;;;4984256;28;20227;-82
2022/05/29 22:46:22;;;;;;;2.53;2.10;;;;;;;;;;4994191;28;20661;-82
2022/05/29 22:48:58;;;;;;;2.17;1.90;;;;;;;;;;4975997;28;20258;-82
2022/05/29 22:51:26;;;;;;;1.80;1.70;;;;;;;;;;4969453;28;20208;-82
2022/05/29 22:53:58;;;;;;;3.33;1.90;;;;;;;;;;4969597;28;20204;-82
2022/05/29 22:56:26;;;;;;;2.47;2.03;;;;;;;;;;4976054;28;20310;-82
2022/05/29 22:58:55;;;;;;;2.00;1.67;;;;;;;;;;4975613;28;20258;-83
2022/05/29 23:01:23;;;;;;;2.35;1.90;;;;;;;;;;4987334;28;20217;-82
2022/05/29 23:03:52;;;;;;;1.80;1.70;;;;;;;;;;4975592;28;20215;-82
2022/05/29 23:06:19;;;;;;;2.90;2.10;;;;;;;;;;4981517;28;20242;-82
2022/05/29 23:08:47;;;;;;;2.50;1.90;;;;;;;;;;4990693;28;20195;-83
2022/05/29 23:11:19;;;;;;;2.15;1.95;;;;;;;;;;4984524;28;20212;-81
2022/05/29 23:13:47;;;;;;;1.77;1.65;;;;;;;;;;4975199;28;20231;-82
2022/05/29 23:16:14;;;;;;;2.35;2.15;;;;;;;;;;4975260;28;20263;-82
2022/05/29 23:18:41;;;;;;;1.70;1.60;;;;;;;;;;4975101;28;20224;-82
2022/05/29 23:21:09;;;;;;;2.13;1.90;;;;;;;;;;4977148;28;20239;-82
2022/05/29 23:23:37;;;;;;;2.00;1.80;;;;;;;;;;4980697;28;20211;-83
2022/05/29 23:26:04;;;;;;;2.10;1.90;;;;;;;;;;4986481;28;20262;-82
2022/05/29 23:28:33;;;;;;;1.92;1.83;;;;;;;;;;4975447;28;20239;-82
2022/05/29 23:31:02;;;;;;;2.00;1.80;;;;;;;;;;4974795;28;20235;-82
2022/05/29 23:33:30;;;;;;;2.25;1.98;;;;;;;;;;4975472;28;20208;-82
2022/05/29 23:35:57;;;;;;;1.70;1.60;;;;;;;;;;4976542;28;20643;-82
2022/05/29 23:38:27;;;;;;;1.92;1.73;;;;;;;;;;4981093;28;20259;-82
2022/05/29 23:42:21;;;;;;;2.13;1.65;;;;;;;;;;4979218;28;20212;-82
2022/05/29 23:43:43;;;;;;;1.73;1.63;;;;;;;;;;4992658;28;20207;-83
2022/05/29 23:46:14;;;;;;;2.15;1.95;;;;;;;;;;4987849;28;20291;-82
2022/05/29 23:48:42;;;;;;;1.83;1.65;;;;;;;;;;4982470;28;20200;-82
2022/05/29 23:51:10;;;;;;;1.60;1.50;;;;;;;;;;4979062;28;20284;-82
2022/05/29 23:53:37;;;;;;;1.70;1.60;;;;;;;;;;4978945;28;20208;-82
2022/05/29 23:56:05;;;;;;;2.13;1.85;;;;;;;;;;4988444;28;20227;-82
2022/05/29 23:58:32;;;;;;;1.70;1.60;;;;;;;;;;4981913;28;20258;-82
